Terminal Aerodrome Forecast
Issued by NWS

Home | Current Version | Previous Version | Text Only | Print | Product List | Glossary On
Versions: 1 2 3 4 5 6 7 8 9 10 11 12 13 14 15 16 17 18 19 20
000
FTUS44 KTSA 222300
TAFRVS
TAF
KRVS 222320Z 2300/2324 15007KT P6SM OVC028
     FM230600 12005KT P6SM VCSH OVC025 PROB30 2309/2315 4SM -RA BR
      BKN015
     FM231500 15007KT P6SM OVC025
      TEMPO 2320/2324 4SM -TSRA BR BKN015CB=

USA.gov is the U.S. government's official web portal to all federal, state and local government web resources and services.